• Join FlightAware (Why Join?)
  • Login
  • US Flag 
03:26AM EDT


 

Airport Tracker/Info


-or-


 

Live Flight TrackerFlight Track Log ✈ CSN350 ✈ 06-Oct-2013 ✈ WMKK / KUL - ZGGG / CAN

Flight Track Log - Related Links

Times and Time Zones

All times are in EDT time to prevent confusion due to time zone crossing. See the CSN350 flight status page for this flight to view local times or setup timezone preferences in your user account.

Time Position Orientation Groundspeed Altitude Reporting Facility
EDT Latitude Longitude Course Direction KTS MPH feet Rate Location/Type
01:56AM 2.8457 101.7622 28° Northeast  Level Estimated
01:57AM 2.9459 101.8145 28° Northeast  Level Estimated
01:58AM 3.0460 101.8669 28° Northeast  Level Estimated
01:59AM 3.1461 101.9192 28° Northeast  Level Estimated
02:00AM 3.2463 101.9715 28° Northeast  Level Estimated
02:01AM 3.3464 102.0239 28° Northeast  Level Estimated
02:02AM 3.4465 102.0762 28° Northeast  Level Estimated
02:03AM 3.5467 102.1286 28° Northeast  Level Estimated
02:04AM 3.6468 102.1810 28° Northeast  Level Estimated
02:05AM 3.7469 102.2334 28° Northeast  Level Estimated
02:06AM 3.8470 102.2858 28° Northeast  Level Estimated
02:07AM 3.9471 102.3382 28° Northeast  Level Estimated
02:08AM 4.0473 102.3906 28° Northeast  Level Estimated
02:09AM 4.1474 102.4431 28° Northeast  Level Estimated
02:10AM 4.2475 102.4955 28° Northeast  Level Estimated
02:11AM 4.3476 102.5480 28° Northeast  Level Estimated
02:12AM 4.4477 102.6005 28° Northeast  Level Estimated
02:13AM 4.5478 102.6530 28° Northeast  Level Estimated
02:14AM 4.6479 102.7055 28° Northeast  Level Estimated
02:15AM 4.7480 102.7580 28° Northeast  Level Estimated
02:16AM 4.8480 102.8105 28° Northeast  Level Estimated
02:17AM 4.9481 102.8631 28° Northeast  Level Estimated
02:18AM 5.0482 102.9157 28° Northeast  Level Estimated
02:19AM 5.1483 102.9683 28° Northeast  Level Estimated
02:20AM 5.2483 103.0209 28° Northeast  Level Estimated
02:21AM 5.3484 103.0735 28° Northeast  Level Estimated
02:22AM 5.4484 103.1261 28° Northeast  Level Estimated
02:23AM 5.5485 103.1788 28° Northeast  Level Estimated
02:24AM 5.6485 103.2315 28° Northeast  Level Estimated
02:25AM 5.7486 103.2841 28° Northeast  Level Estimated
02:26AM 5.8486 103.3369 28° Northeast  Level Estimated
02:27AM 5.9486 103.3896 28° Northeast  Level Estimated
02:28AM 6.0487 103.4423 28° Northeast  Level Estimated
02:29AM 6.1487 103.4951 28° Northeast  Level Estimated
02:30AM 6.2487 103.5479 28° Northeast  Level Estimated
02:31AM 6.3487 103.6007 28° Northeast  Level Estimated
02:32AM 6.4487 103.6535 28° Northeast  Level Estimated
02:33AM 6.5487 103.7064 28° Northeast  Level Estimated
02:34AM 6.6487 103.7593 28° Northeast  Level Estimated
02:35AM 6.7487 103.8121 28° Northeast  Level Estimated
02:36AM 6.8487 103.8651 28° Northeast  Level Estimated
02:37AM 6.9487 103.9180 28° Northeast  Level Estimated
02:38AM 7.0487 103.9710 28° Northeast  Level Estimated
02:39AM 7.1486 104.0239 28° Northeast  Level Estimated
02:40AM 7.2486 104.0770 28° Northeast  Level Estimated
02:41AM 7.3486 104.1300 28° Northeast  Level Estimated
02:42AM 7.4485 104.1830 28° Northeast  Level Estimated
02:43AM 7.5484 104.2361 28° Northeast  Level Estimated
02:44AM 7.6484 104.2892 28° Northeast  Level Estimated
02:45AM 7.7483 104.3423 28° Northeast  Level Estimated
02:46AM 7.8482 104.3955 28° Northeast  Level Estimated
02:47AM 7.9482 104.4487 28° Northeast  Level Estimated
02:48AM 8.0481 104.5019 28° Northeast  Level Estimated
02:49AM 8.1480 104.5551 28° Northeast  Level Estimated
02:50AM 8.2479 104.6084 28° Northeast  Level Estimated
02:51AM 8.3478 104.6617 28° Northeast  Level Estimated
02:52AM 8.4476 104.7150 28° Northeast  Level Estimated
02:53AM 8.5475 104.7683 28° Northeast  Level Estimated
02:54AM 8.6474 104.8217 28° Northeast  Level Estimated
02:55AM 8.7472 104.8751 28° Northeast  Level Estimated
02:56AM 8.8471 104.9285 28° Northeast  Level Estimated
02:57AM 8.9469 104.9819 28° Northeast  Level Estimated
02:58AM 9.0468 105.0354 28° Northeast  Level Estimated
02:59AM 9.1466 105.0889 28° Northeast  Level Estimated
03:00AM 9.2464 105.1425 28° Northeast  Level Estimated
03:01AM 9.3462 105.1960 28° Northeast  Level Estimated
03:02AM 9.4460 105.2496 28° Northeast  Level Estimated
03:03AM 9.5458 105.3033 28° Northeast  Level Estimated
03:04AM 9.6456 105.3569 28° Northeast  Level Estimated
03:05AM 9.7454 105.4106 28° Northeast  Level Estimated
03:06AM 9.8452 105.4643 28° Northeast  Level Estimated
03:07AM 9.9450 105.5181 28° Northeast  Level Estimated
03:08AM 10.0447 105.5719 28° Northeast  Level Estimated
03:09AM 10.1445 105.6257 28° Northeast  Level Estimated
03:10AM 10.2442 105.6796 28° Northeast  Level Estimated
03:11AM 10.3439 105.7335 28° Northeast  Level Estimated
03:12AM 10.4437 105.7874 28° Northeast  Level Estimated
03:13AM 10.5434 105.8414 28° Northeast  Level Estimated
03:14AM 10.6431 105.8954 28° Northeast  Level Estimated
03:15AM 10.7428 105.9494 28° Northeast  Level Estimated
03:16AM 10.8424 106.0035 28° Northeast  Level Estimated
03:17AM 10.9421 106.0576 28° Northeast  Level Estimated
03:18AM 11.0418 106.1117 28° Northeast  Level Estimated
03:19AM 11.1414 106.1659 28° Northeast  Level Estimated
03:20AM 11.2411 106.2201 28° Northeast  Level Estimated
03:21AM 11.3407 106.2744 28° Northeast  Level Estimated
03:22AM 11.4403 106.3287 28° Northeast  Level Estimated
03:23AM 11.5400 106.3830 28° Northeast  Level Estimated
03:24AM 11.6396 106.4374 28° Northeast  Level Estimated
03:25AM 11.7392 106.4918 28° Northeast  Level Estimated
03:26AM 11.8387 106.5462 28° Northeast  Level Estimated
03:27AM 11.9383 106.6007 28° Northeast  Level Estimated
03:28AM 12.0379 106.6552 28° Northeast  Level Estimated
03:29AM 12.1374 106.7098 28° Northeast  Level Estimated
03:30AM 12.2370 106.7644 28° Northeast  Level Estimated
03:31AM 12.3365 106.8191 28° Northeast  Level Estimated
03:32AM 12.4360 106.8738 28° Northeast  Level Estimated
03:33AM 12.5355 106.9285 28° Northeast  Level Estimated
03:34AM 12.6350 106.9833 28° Northeast  Level Estimated
03:35AM 12.7345 107.0381 28° Northeast  Level Estimated
03:36AM 12.8340 107.0929 28° Northeast  Level Estimated
03:37AM 12.9335 107.1478 28° Northeast  Level Estimated
03:38AM 13.0329 107.2028 28° Northeast  Level Estimated
03:39AM 13.1324 107.2578 28° Northeast  Level Estimated
03:40AM 13.2318 107.3128 28° Northeast  Level Estimated
03:41AM 13.3312 107.3679 28° Northeast  Level Estimated
03:42AM 13.4306 107.4230 28° Northeast  Level Estimated
03:43AM 13.5300 107.4782 28° Northeast  Level Estimated
03:44AM 13.6294 107.5334 28° Northeast  Level Estimated
03:45AM 13.7288 107.5887 28° Northeast  Level Estimated
03:46AM 13.8281 107.6440 28° Northeast  Level Estimated
03:47AM 13.9275 107.6993 28° Northeast  Level Estimated
03:48AM 14.0268 107.7548 28° Northeast  Level Estimated
03:49AM 14.1261 107.8102 28° Northeast  Level Estimated
03:50AM 14.2254 107.8657 28° Northeast  Level Estimated
03:51AM 14.3247 107.9213 28° Northeast  Level Estimated
03:52AM 14.4240 107.9769 28° Northeast  Level Estimated
03:53AM 14.5233 108.0325 28° Northeast  Level Estimated
03:54AM 14.6225 108.0882 29° Northeast  Level Estimated
03:55AM 14.7218 108.1440 29° Northeast  Level Estimated
03:56AM 14.8210 108.1998 29° Northeast  Level Estimated
03:57AM 14.9202 108.2556 29° Northeast  Level Estimated
03:58AM 15.0194 108.3115 29° Northeast  Level Estimated
03:59AM 15.1186 108.3675 29° Northeast  Level Estimated
04:00AM 15.2178 108.4235 29° Northeast  Level Estimated
04:01AM 15.3170 108.4795 29° Northeast  Level Estimated
04:02AM 15.4161 108.5357 29° Northeast  Level Estimated
04:03AM 15.5152 108.5918 29° Northeast  Level Estimated
04:04AM 15.6144 108.6480 29° Northeast  Level Estimated
04:05AM 15.7135 108.7043 29° Northeast  Level Estimated
04:06AM 15.8125 108.7607 29° Northeast  Level Estimated
04:07AM 15.9116 108.8170 29° Northeast  Level Estimated
04:08AM 16.0107 108.8735 29° Northeast  Level Estimated
04:09AM 16.1097 108.9300 29° Northeast  Level Estimated
04:10AM 16.2088 108.9865 29° Northeast  Level Estimated
04:11AM 16.3078 109.0431 29° Northeast  Level Estimated
04:12AM 16.4068 109.0998 29° Northeast  Level Estimated
04:13AM 16.5058 109.1565 29° Northeast  Level Estimated
04:14AM 16.6047 109.2133 29° Northeast  Level Estimated
04:15AM 16.7037 109.2702 29° Northeast  Level Estimated
04:16AM 16.8027 109.3271 29° Northeast  Level Estimated
04:17AM 16.9016 109.3840 29° Northeast  Level Estimated
04:18AM 17.0005 109.4410 29° Northeast  Level Estimated
04:19AM 17.0994 109.4981 29° Northeast  Level Estimated
04:20AM 17.1982 109.5553 29° Northeast  Level Estimated
04:21AM 17.2971 109.6125 29° Northeast  Level Estimated
04:22AM 17.3960 109.6697 29° Northeast  Level Estimated
04:23AM 17.4948 109.7271 29° Northeast  Level Estimated
04:24AM 17.5936 109.7844 29° Northeast  Level Estimated
04:25AM 17.6924 109.8419 29° Northeast  Level Estimated
04:26AM 17.7912 109.8994 29° Northeast  Level Estimated
04:27AM 17.8899 109.9570 29° Northeast  Level Estimated
04:28AM 17.9887 110.0146 29° Northeast  Level Estimated
04:29AM 18.0874 110.0723 29° Northeast  Level Estimated
04:30AM 18.1861 110.1301 29° Northeast  Level Estimated
04:31AM 18.2848 110.1879 29° Northeast  Level Estimated
04:32AM 18.3835 110.2458 29° Northeast  Level Estimated
04:33AM 18.4821 110.3038 29° Northeast  Level Estimated
04:34AM 18.5808 110.3618 29° Northeast  Level Estimated
04:35AM 18.6794 110.4200 29° Northeast  Level Estimated
04:36AM 18.7780 110.4781 29° Northeast  Level Estimated
04:37AM 18.8766 110.5364 29° Northeast  Level Estimated
04:38AM 18.9751 110.5947 29° Northeast  Level Estimated
04:39AM 19.0737 110.6531 29° Northeast  Level Estimated
04:40AM 19.1722 110.7115 29° Northeast  Level Estimated
04:41AM 19.2707 110.7700 29° Northeast  Level Estimated
04:42AM 19.3692 110.8286 29° Northeast  Level Estimated
04:43AM 19.4677 110.8873 29° Northeast  Level Estimated
04:44AM 19.5662 110.9460 29° Northeast  Level Estimated
04:45AM 19.6646 111.0048 29° Northeast  Level Estimated
04:46AM 19.7630 111.0637 29° Northeast  Level Estimated
04:47AM 19.8614 111.1226 29° Northeast  Level Estimated
04:48AM 19.9598 111.1816 29° Northeast  Level Estimated
04:49AM 20.0582 111.2407 29° Northeast  Level Estimated
04:50AM 20.1565 111.2999 29° Northeast  Level Estimated
04:51AM 20.2548 111.3591 29° Northeast  Level Estimated
04:52AM 20.3531 111.4185 29° Northeast  Level Estimated
04:53AM 20.4514 111.4779 30° Northeast  Level Estimated
04:54AM 20.5497 111.5373 30° Northeast  Level Estimated
04:55AM 20.6479 111.5969 30° Northeast  Level Estimated
04:56AM 20.7461 111.6565 30° Northeast  Level Estimated
04:57AM 20.8443 111.7162 30° Northeast  Level Estimated
04:58AM 20.9425 111.7760 30° Northeast  Level Estimated
04:59AM 21.0407 111.8358 30° Northeast  Level Estimated
05:00AM 21.1388 111.8957 30° Northeast  Level Estimated
05:01AM 21.2369 111.9557 30° Northeast  Level Estimated
05:02AM 21.3350 112.0158 30° Northeast  Level Estimated
05:03AM 21.4331 112.0760 30° Northeast  Level Estimated
05:04AM 21.5311 112.1363 30° Northeast  Level Estimated
05:05AM 21.6292 112.1966 30° Northeast  Level Estimated
05:06AM 21.7272 112.2570 30° Northeast  Level Estimated
05:07AM 21.8252 112.3175 30° Northeast  Level Estimated
05:08AM 21.9231 112.3781 30° Northeast  Level Estimated
05:09AM 22.0211 112.4388 30° Northeast  Level Estimated
05:10AM 22.1190 112.4995 30° Northeast  Level Estimated
05:11AM 22.2169 112.5603 30° Northeast  Level Estimated
05:12AM 22.3148 112.6213 30° Northeast  Level Estimated
05:13AM 22.4126 112.6823 30° Northeast  Level Estimated
05:14AM 22.5104 112.7434 30° Northeast  Level Estimated
05:15AM 22.6082 112.8046 30° Northeast  Level Estimated
05:16AM 22.7060 112.8658 30° Northeast  Level Estimated
05:17AM 22.8038 112.9272 30° Northeast  Level Estimated
05:18AM 22.9015 112.9886 30° Northeast  Level Estimated
05:19AM 22.9992 113.0501 30° Northeast  Level Estimated
05:20AM 23.0969 113.1117 30° Northeast  Level Estimated
05:21AM 23.1946 113.1735 30° Northeast  Level Estimated
05:22AM 23.2922 113.2353 30° Northeast  Level Estimated
05:23AM 23.3899 113.2971 30° Northeast  Level Estimated
05:24AM 23.3924 113.2988 30° Northeast  Level Estimated
05:25AM 23.3924 113.2988 223° Southwest  Level Estimated
05:26AM 23.3924 113.2988 223° Southwest  Level Estimated
05:27AM 23.3924 113.2988 223° Southwest  Level Estimated
05:28AM 23.3924 113.2988 223° Southwest  Level Estimated
05:29AM 23.3924 113.2988 223° Southwest  Level Estimated
05:30AM 23.3924 113.2988 223° Southwest  Level Estimated
05:31AM 23.3924 113.2988 223° Southwest  Level Estimated
05:32AM 23.3924 113.2988 223° Southwest  Level Estimated
05:33AM 23.3924 113.2988 223° Southwest  Level Estimated
05:34AM 23.3924 113.2988 223° Southwest  Level Estimated
05:35AM 23.3924 113.2988 223° Southwest  Level Estimated
05:36AM 23.3924 113.2988 223° Southwest  Level Estimated
05:37AM 23.3924 113.2988 223° Southwest  Level Estimated
05:38AM 23.3924 113.2988 223° Southwest  Level Estimated
05:39AM 23.3924 113.2988 223° Southwest  Level Estimated
05:40AM 23.3924 113.2988 223° Southwest  Level Estimated
05:41AM 23.3924 113.2988 223° Southwest  Level Estimated